createdAt,value
2023-02-11T00:00:35.484Z,97577.56
2023-02-11T00:03:03.011Z,97542.03
2023-02-11T00:05:30.541Z,97570.16
2023-02-11T00:07:58.276Z,97560.19
2023-02-11T00:10:27.090Z,97574.00
2023-02-11T00:12:54.584Z,97550.66
2023-02-11T00:15:22.302Z,97575.16
2023-02-11T00:17:49.746Z,97570.19
2023-02-11T00:20:17.418Z,97573.25
2023-02-11T00:22:45.266Z,97569.84
2023-02-11T00:25:12.721Z,97556.16
2023-02-11T00:27:41.524Z,97555.69
2023-02-11T00:30:11.315Z,97567.63
2023-02-11T00:32:38.830Z,97563.09
2023-02-11T00:35:06.898Z,97542.31
2023-02-11T00:37:36.337Z,97553.28
2023-02-11T00:40:06.646Z,97543.63
2023-02-11T00:42:35.452Z,97486.88
2023-02-11T00:45:05.233Z,97539.41
2023-02-11T00:47:32.907Z,97548.28
2023-02-11T00:50:00.859Z,97550.41
2023-02-11T00:52:29.741Z,97522.53
2023-02-11T00:54:57.210Z,97522.72
2023-02-11T00:57:24.918Z,97544.09
2023-02-11T00:59:52.372Z,97552.81
2023-02-11T01:02:21.167Z,97540.88
2023-02-11T01:04:48.683Z,97545.59
2023-02-11T01:07:16.135Z,97545.91
2023-02-11T01:09:43.617Z,97530.91
2023-02-11T01:12:11.040Z,97526.59
2023-02-11T01:14:38.463Z,97536.91
2023-02-11T01:17:06.315Z,97527.44
2023-02-11T01:19:35.256Z,97515.03
2023-02-11T01:22:02.734Z,97533.38
2023-02-11T01:24:30.181Z,97518.75
2023-02-11T01:26:57.961Z,97519.41
2023-02-11T01:29:25.519Z,97504.91
2023-02-11T01:31:53.326Z,97528.03
2023-02-11T01:34:20.946Z,97493.97
2023-02-11T01:36:49.987Z,97534.34
2023-02-11T01:39:17.471Z,97541.63
2023-02-11T01:41:44.933Z,97542.59
2023-02-11T01:44:26.992Z,97537.59
2023-02-11T01:46:55.090Z,97534.06
2023-02-11T01:49:26.102Z,97536.63
2023-02-11T01:52:00.172Z,97536.50
2023-02-11T01:54:56.544Z,97532.97
2023-02-11T01:57:27.698Z,97529.91
2023-02-11T02:00:08.230Z,97537.66
2023-02-11T02:02:43.744Z,97525.72
2023-02-11T02:05:23.713Z,97499.22
2023-02-11T02:07:57.545Z,97486.69
2023-02-11T02:10:27.831Z,97529.63
2023-02-11T02:12:55.532Z,97526.09
2023-02-11T02:15:26.720Z,97532.38
2023-02-11T02:18:00.958Z,97515.78
2023-02-11T02:20:56.361Z,97527.91
2023-02-11T02:23:37.145Z,97550.78
2023-02-11T02:26:40.289Z,97552.06
2023-02-11T02:29:41.442Z,97564.13
2023-02-11T02:32:33.911Z,97560.44
2023-02-11T02:35:11.650Z,97547.25
2023-02-11T02:37:43.438Z,97561.56
2023-02-11T02:40:15.811Z,97569.63
2023-02-11T02:42:44.830Z,97570.91
2023-02-11T02:45:14.093Z,97563.69
2023-02-11T02:47:42.919Z,97556.28
2023-02-11T02:50:11.531Z,97556.75
2023-02-11T02:52:47.313Z,97546.28
2023-02-11T02:55:31.958Z,97522.25
2023-02-11T02:58:24.796Z,97521.78
2023-02-11T03:01:00.065Z,97520.00
2023-02-11T03:03:36.906Z,97529.53
2023-02-11T03:06:09.612Z,97522.13
2023-02-11T03:08:42.358Z,97529.38
2023-02-11T03:11:12.364Z,97523.75
2023-02-11T03:13:41.765Z,97492.84
2023-02-11T03:16:14.465Z,97510.69
2023-02-11T03:18:49.233Z,97498.63
2023-02-11T03:21:17.601Z,97491.88
2023-02-11T03:23:50.695Z,97480.59
2023-02-11T03:26:26.594Z,97476.41
2023-02-11T03:29:01.610Z,97495.53
2023-02-11T03:31:35.083Z,97479.47
2023-02-11T03:34:09.576Z,97465.50
2023-02-11T03:36:45.940Z,97478.34
2023-02-11T03:39:17.042Z,97397.47
2023-02-11T03:41:46.685Z,97456.44
2023-02-11T03:44:16.875Z,97469.16
2023-02-11T03:46:49.791Z,97437.50
2023-02-11T03:49:22.254Z,97472.25
2023-02-11T03:51:52.634Z,97475.00
2023-02-11T03:54:27.514Z,97488.34
2023-02-11T03:56:57.746Z,97491.75
2023-02-11T03:59:25.209Z,97493.19
2023-02-11T04:01:53.180Z,97502.69
2023-02-11T04:04:22.586Z,97515.91
2023-02-11T04:06:50.032Z,97509.28
2023-02-11T04:09:18.394Z,97480.97
2023-02-11T04:11:45.843Z,97504.13
2023-02-11T04:14:13.315Z,97497.84
2023-02-11T04:16:40.801Z,97507.00
2023-02-11T04:19:08.515Z,97499.78
2023-02-11T04:21:37.340Z,97499.63
2023-02-11T04:24:05.332Z,97512.34
2023-02-11T04:26:33.079Z,97514.41
2023-02-11T04:29:00.777Z,97508.28
2023-02-11T04:31:28.735Z,97486.59
2023-02-11T04:33:57.342Z,97494.94
2023-02-11T04:36:25.089Z,97514.59
2023-02-11T04:38:54.178Z,97439.09
2023-02-11T04:41:21.866Z,97508.91
2023-02-11T04:43:49.377Z,97523.25
2023-02-11T04:46:16.912Z,97515.53
2023-02-11T04:48:44.631Z,97509.09
2023-02-11T04:51:12.112Z,97505.88
2023-02-11T04:53:39.616Z,97492.84
2023-02-11T04:56:08.741Z,97482.25
2023-02-11T04:58:36.184Z,97485.13
2023-02-11T05:01:07.684Z,97464.84
2023-02-11T05:03:35.653Z,97481.47
2023-02-11T05:06:03.365Z,97480.97
2023-02-11T05:08:31.043Z,97476.13
2023-02-11T05:10:58.645Z,97480.63
2023-02-11T05:13:27.424Z,97481.28
2023-02-11T05:15:55.769Z,97480.00
2023-02-11T05:18:23.521Z,97462.94
2023-02-11T05:20:51.027Z,97485.00
2023-02-11T05:23:18.463Z,97488.03
2023-02-11T05:25:45.898Z,97474.06
2023-02-11T05:28:13.421Z,97473.25
2023-02-11T05:30:42.293Z,97489.66
2023-02-11T05:33:09.776Z,97487.72
2023-02-11T05:35:37.294Z,97482.41
2023-02-11T05:38:04.761Z,97485.78
2023-02-11T05:40:32.190Z,97481.28
2023-02-11T05:42:59.630Z,97460.69
2023-02-11T05:45:27.088Z,97471.16
2023-02-11T05:47:55.887Z,97446.38
2023-02-11T05:50:23.343Z,97465.66
2023-02-11T05:52:50.923Z,97458.75
2023-02-11T05:55:18.788Z,97463.25
2023-02-11T05:57:46.204Z,97460.53
2023-02-11T06:00:14.975Z,97475.66
2023-02-11T06:02:42.477Z,97487.88
2023-02-11T06:05:11.379Z,97491.56
2023-02-11T06:07:38.817Z,97488.03
2023-02-11T06:10:07.416Z,97491.88
2023-02-11T06:12:35.102Z,97462.13
2023-02-11T06:15:02.635Z,97477.25
2023-02-11T06:17:31.675Z,97461.81
2023-02-11T06:19:59.212Z,97490.94
2023-02-11T06:22:28.483Z,97479.50
2023-02-11T06:25:01.690Z,97452.16
2023-02-11T06:27:30.130Z,97480.44
2023-02-11T06:29:57.845Z,97456.50
2023-02-11T06:32:42.789Z,97470.31
2023-02-11T06:35:12.513Z,97459.34
2023-02-11T06:37:41.498Z,97449.53
2023-02-11T06:40:09.715Z,97457.88
2023-02-11T06:42:38.636Z,97441.00
2023-02-11T06:45:08.877Z,97436.16
2023-02-11T06:47:36.326Z,97444.03
2023-02-11T06:50:03.990Z,97445.00
2023-02-11T06:52:31.391Z,97448.22
2023-02-11T06:55:00.460Z,97446.13
2023-02-11T06:57:27.891Z,97443.53
2023-02-11T06:59:55.553Z,97450.31
2023-02-11T07:02:22.938Z,97450.75
2023-02-11T07:04:50.589Z,97461.56
2023-02-11T07:07:17.985Z,97468.31
2023-02-11T07:09:45.618Z,97463.13
2023-02-11T07:12:14.336Z,97463.44
2023-02-11T07:14:42.008Z,97466.69
2023-02-11T07:17:09.534Z,97468.59
2023-02-11T07:19:36.947Z,97462.97
2023-02-11T07:22:04.368Z,97485.00
2023-02-11T07:24:31.795Z,97491.13
2023-02-11T07:26:59.250Z,97488.69
2023-02-11T07:29:28.126Z,97498.66
2023-02-11T07:31:55.616Z,97493.50
2023-02-11T07:34:23.199Z,97505.91
2023-02-11T07:36:50.906Z,97509.94
2023-02-11T07:39:19.903Z,97516.22
2023-02-11T07:41:48.888Z,97494.13
2023-02-11T07:44:16.422Z,97500.72
2023-02-11T07:46:45.533Z,97509.09
2023-02-11T07:49:13.340Z,97498.16
2023-02-11T07:51:40.834Z,97516.19
2023-02-11T07:54:08.472Z,97505.97
2023-02-11T07:56:35.935Z,97507.25
2023-02-11T07:59:04.440Z,97508.53
2023-02-11T08:01:32.396Z,97516.09
2023-02-11T08:04:02.683Z,97511.25
2023-02-11T08:06:32.252Z,97502.22
2023-02-11T08:09:04.322Z,97511.75
2023-02-11T08:11:31.830Z,97521.09
2023-02-11T08:13:59.476Z,97500.13
2023-02-11T08:16:29.155Z,97483.41
2023-02-11T08:18:58.267Z,97512.78
2023-02-11T08:21:27.224Z,97494.06
2023-02-11T08:23:55.259Z,97523.41
2023-02-11T08:26:25.915Z,97529.06
2023-02-11T08:28:55.263Z,97526.13
2023-02-11T08:31:24.307Z,97493.97
2023-02-11T08:33:53.246Z,97509.88
2023-02-11T08:36:23.157Z,97511.63
2023-02-11T08:38:52.126Z,97522.88
2023-02-11T08:41:19.635Z,97494.72
2023-02-11T08:43:47.305Z,97524.44
2023-02-11T08:46:16.855Z,97518.59
2023-02-11T08:48:45.093Z,97524.38
2023-02-11T08:51:15.504Z,97515.31
2023-02-11T08:53:42.951Z,97550.59
2023-02-11T08:56:13.658Z,97535.25
2023-02-11T08:58:42.469Z,97547.91
2023-02-11T09:01:11.409Z,97549.19
2023-02-11T09:03:59.809Z,97564.50
2023-02-11T09:06:29.014Z,97560.72
2023-02-11T09:08:58.189Z,97573.22
2023-02-11T09:11:30.645Z,97575.47
2023-02-11T09:13:58.927Z,97578.22
2023-02-11T09:16:28.738Z,97579.66
2023-02-11T09:18:57.731Z,97587.69
2023-02-11T09:21:25.651Z,97582.19
2023-02-11T09:23:53.266Z,97574.00
2023-02-11T09:26:23.301Z,97589.78
2023-02-11T09:28:52.188Z,97577.00
2023-02-11T09:31:21.672Z,97588.47
2023-02-11T09:33:51.503Z,97574.84
2023-02-11T09:36:21.510Z,97585.81
2023-02-11T09:38:49.403Z,97581.91
2023-02-11T09:41:42.353Z,97596.44
2023-02-11T09:44:19.594Z,97604.97
2023-02-11T09:46:51.065Z,97591.44
2023-02-11T09:49:26.297Z,97595.63
2023-02-11T09:51:59.618Z,97604.81
2023-02-11T09:54:34.788Z,97576.03
2023-02-11T09:57:02.351Z,97610.63
2023-02-11T09:59:31.169Z,97608.19
2023-02-11T10:02:03.021Z,97619.47
2023-02-11T10:04:52.378Z,97618.03
2023-02-11T10:07:26.152Z,97625.31
2023-02-11T10:10:04.450Z,97634.53
2023-02-11T10:12:52.077Z,97625.44
2023-02-11T10:15:28.819Z,97640.44
2023-02-11T10:18:11.815Z,97596.84
2023-02-11T10:20:48.950Z,97626.28
2023-02-11T10:23:20.455Z,97650.31
2023-02-11T10:25:52.859Z,97638.53
2023-02-11T10:28:22.025Z,97634.63
2023-02-11T10:30:58.430Z,97634.00
2023-02-11T10:33:29.006Z,97604.41
2023-02-11T10:35:56.476Z,97651.81
2023-02-11T10:38:23.931Z,97650.84
2023-02-11T10:40:51.739Z,97645.19
2023-02-11T10:43:24.589Z,97652.16
2023-02-11T10:45:54.542Z,97653.75
2023-02-11T10:48:49.256Z,97647.09
2023-02-11T10:51:22.554Z,97619.47
2023-02-11T10:53:51.789Z,97658.53
2023-02-11T10:56:27.248Z,97633.09
2023-02-11T10:59:01.457Z,97662.72
2023-02-11T11:01:42.686Z,97654.63
2023-02-11T11:04:33.977Z,97614.84
2023-02-11T11:07:13.116Z,97657.28
2023-02-11T11:09:48.292Z,97650.81
2023-02-11T11:12:47.799Z,97651.16
2023-02-11T11:15:19.792Z,97649.19
2023-02-11T11:17:49.052Z,97645.28
2023-02-11T11:20:21.802Z,97648.84
2023-02-11T11:22:50.792Z,97645.28
2023-02-11T11:25:27.783Z,97596.97
2023-02-11T11:27:58.118Z,97637.50
2023-02-11T11:30:32.542Z,97635.09
2023-02-11T11:33:02.065Z,97643.56
2023-02-11T11:35:33.871Z,97630.66
2023-02-11T11:38:04.254Z,97629.91
2023-02-11T11:40:33.885Z,97626.28
2023-02-11T11:43:07.472Z,97632.28
2023-02-11T11:45:34.975Z,97627.66
2023-02-11T11:48:09.939Z,97619.06
2023-02-11T11:50:42.692Z,97630.50
2023-02-11T11:53:16.023Z,97616.59
2023-02-11T11:55:47.533Z,97616.94
2023-02-11T11:58:18.381Z,97618.00
2023-02-11T12:00:57.254Z,97617.91
2023-02-11T12:04:01.545Z,97591.34
2023-02-11T12:06:41.106Z,97613.56
2023-02-11T12:09:20.747Z,97616.59
2023-02-11T12:12:07.230Z,97604.00
2023-02-11T12:14:44.730Z,97601.78
2023-02-11T12:17:23.515Z,97613.72
2023-02-11T12:20:00.350Z,97604.19
2023-02-11T12:22:39.396Z,97612.22
2023-02-11T12:25:25.974Z,97598.66
2023-02-11T12:28:03.974Z,97614.97
2023-02-11T12:30:50.339Z,97584.97
2023-02-11T12:33:30.538Z,97605.53
2023-02-11T12:36:09.538Z,97585.69
2023-02-11T12:38:53.054Z,97567.50
2023-02-11T12:41:55.686Z,97624.25
2023-02-11T12:44:37.695Z,97618.34
2023-02-11T12:47:16.548Z,97617.19
2023-02-11T12:50:05.058Z,97588.66
2023-02-11T12:52:46.981Z,97619.25
2023-02-11T12:55:24.447Z,97618.69
2023-02-11T12:57:55.150Z,97614.69
2023-02-11T13:00:25.911Z,97587.09
2023-02-11T13:03:01.001Z,97571.66
2023-02-11T13:05:33.148Z,97587.81
2023-02-11T13:08:05.862Z,97606.03
2023-02-11T13:10:35.760Z,97612.38
2023-02-11T13:13:18.529Z,97601.03
2023-02-11T13:15:50.957Z,97612.81
2023-02-11T13:18:32.724Z,97608.25
2023-02-11T13:21:16.841Z,97602.03
2023-02-11T13:23:57.841Z,97603.81
2023-02-11T13:26:31.619Z,97564.53
2023-02-11T13:29:16.077Z,97590.28
2023-02-11T13:31:44.115Z,97561.50
2023-02-11T13:34:25.435Z,97589.34
2023-02-11T13:36:56.835Z,97593.09
2023-02-11T13:39:25.903Z,97594.34
2023-02-11T13:42:03.956Z,97600.97
2023-02-11T13:44:35.267Z,97595.69
2023-02-11T13:47:05.528Z,97593.09
2023-02-11T13:49:37.426Z,97601.59
2023-02-11T13:52:07.417Z,97599.72
2023-02-11T13:54:40.086Z,97608.38
2023-02-11T13:57:27.789Z,97596.50
2023-02-11T13:59:56.712Z,97599.19
2023-02-11T14:02:50.957Z,97604.00
2023-02-11T14:05:45.838Z,97588.56
2023-02-11T14:08:39.832Z,97614.19
2023-02-11T14:11:12.885Z,97592.59
2023-02-11T14:14:14.828Z,97608.13
2023-02-11T14:17:24.362Z,97600.72
2023-02-11T14:19:52.558Z,97579.19
2023-02-11T14:22:25.822Z,97584.38
2023-02-11T14:24:56.837Z,97599.88
2023-02-11T14:27:43.646Z,97598.91
2023-02-11T14:30:35.070Z,97588.28
2023-02-11T14:33:52.065Z,97578.19
2023-02-11T14:36:46.095Z,97581.16
2023-02-11T14:39:22.825Z,97572.41
2023-02-11T14:41:51.853Z,97577.22
2023-02-11T14:44:23.198Z,97563.03
2023-02-11T14:46:53.370Z,97591.31
2023-02-11T14:49:27.010Z,97597.66
2023-02-11T14:51:56.844Z,97594.72
2023-02-11T14:54:27.658Z,97592.91
2023-02-11T14:57:11.054Z,97602.75
2023-02-11T14:59:40.701Z,97599.91
2023-02-11T15:02:22.826Z,97598.81
2023-02-11T15:04:50.576Z,97605.34
2023-02-11T15:07:19.043Z,97592.75
2023-02-11T15:09:49.597Z,97600.53
2023-02-11T15:12:20.120Z,97603.28
2023-02-11T15:14:51.429Z,97595.25
2023-02-11T15:17:22.921Z,97612.50
2023-02-11T15:19:53.779Z,97599.69
2023-02-11T15:22:25.766Z,97604.88
2023-02-11T15:24:59.826Z,97603.09
2023-02-11T15:27:27.399Z,97598.81
2023-02-11T15:29:56.161Z,97612.22
2023-02-11T15:32:26.690Z,97578.03
2023-02-11T15:34:56.709Z,97608.66
2023-02-11T15:37:26.118Z,97601.34
2023-02-11T15:39:54.707Z,97592.94
2023-02-11T15:42:25.385Z,97612.41
2023-02-11T15:45:23.740Z,97602.75
2023-02-11T15:47:53.490Z,97606.75
2023-02-11T15:50:22.975Z,97615.50
2023-02-11T15:52:51.677Z,97622.31
2023-02-11T15:55:20.435Z,97610.25
2023-02-11T15:57:53.658Z,97631.06
2023-02-11T16:00:24.749Z,97630.63
2023-02-11T16:02:53.165Z,97633.63
2023-02-11T16:05:30.632Z,97626.06
2023-02-11T16:07:59.313Z,97590.09
2023-02-11T16:10:29.962Z,97624.47
2023-02-11T16:13:04.365Z,97631.06
2023-02-11T16:15:52.201Z,97599.00
2023-02-11T16:18:38.694Z,97630.16
2023-02-11T16:21:13.146Z,97627.22
2023-02-11T16:23:43.014Z,97609.53
2023-02-11T16:26:20.706Z,97596.06
2023-02-11T16:28:48.939Z,97609.81
2023-02-11T16:31:18.288Z,97628.63
2023-02-11T16:33:45.873Z,97569.56
2023-02-11T16:36:16.789Z,97616.59
2023-02-11T16:38:44.224Z,97632.47
2023-02-11T16:41:12.719Z,97625.69
2023-02-11T16:43:40.583Z,97639.25
2023-02-11T16:46:09.131Z,97642.97
2023-02-11T16:48:38.686Z,97626.03
2023-02-11T16:51:09.071Z,97642.19
2023-02-11T16:53:36.485Z,97649.13
2023-02-11T16:56:04.232Z,97650.75
2023-02-11T16:58:31.705Z,97658.16
2023-02-11T17:00:59.190Z,97612.41
2023-02-11T17:03:30.085Z,97641.88
2023-02-11T17:05:59.266Z,97681.50
2023-02-11T17:08:26.846Z,97666.41
2023-02-11T17:10:54.550Z,97676.06
2023-02-11T17:13:22.124Z,97676.06
2023-02-11T17:15:50.775Z,97669.00
2023-02-11T17:18:18.363Z,97688.78
2023-02-11T17:20:45.860Z,97693.69
2023-02-11T17:23:14.814Z,97701.53
2023-02-11T17:25:42.327Z,97673.38
2023-02-11T17:28:11.985Z,97705.78
2023-02-11T17:30:41.738Z,97708.38
2023-02-11T17:33:12.306Z,97673.97
2023-02-11T17:35:41.566Z,97710.31
2023-02-11T17:38:09.222Z,97704.25
2023-02-11T17:40:38.333Z,97699.25
2023-02-11T17:43:06.082Z,97703.59
2023-02-11T17:45:33.694Z,97718.91
2023-02-11T17:48:05.535Z,97712.47
2023-02-11T17:50:36.516Z,97717.38
2023-02-11T17:53:04.141Z,97718.16
2023-02-11T17:55:33.994Z,97721.47
2023-02-11T17:58:02.976Z,97718.41
2023-02-11T18:00:31.472Z,97691.22
2023-02-11T18:03:02.852Z,97654.66
2023-02-11T18:05:35.266Z,97708.00
2023-02-11T18:08:03.647Z,97721.34
2023-02-11T18:10:31.695Z,97708.16
2023-02-11T18:12:59.391Z,97725.03
2023-02-11T18:15:28.498Z,97667.53
2023-02-11T18:17:56.889Z,97720.84
2023-02-11T18:20:24.519Z,97689.03
2023-02-11T18:22:52.153Z,97737.38
2023-02-11T18:25:27.715Z,97712.25
2023-02-11T18:27:55.326Z,97747.38
2023-02-11T18:30:24.158Z,97737.47
2023-02-11T18:32:56.101Z,97695.28
2023-02-11T18:35:24.521Z,97705.44
2023-02-11T18:37:53.423Z,97754.72
2023-02-11T18:40:21.340Z,97748.56
2023-02-11T18:42:49.018Z,97761.69
2023-02-11T18:45:16.631Z,97734.16
2023-02-11T18:47:44.181Z,97744.03
2023-02-11T18:50:15.478Z,97750.56
2023-02-11T18:52:43.396Z,97748.47
2023-02-11T18:55:11.066Z,97756.38
2023-02-11T18:57:38.734Z,97756.50
2023-02-11T19:00:07.579Z,97762.31
2023-02-11T19:02:35.195Z,97759.50
2023-02-11T19:05:02.982Z,97730.69
2023-02-11T19:07:32.467Z,97697.41
2023-02-11T19:10:00.187Z,97763.94
2023-02-11T19:12:27.819Z,97763.09
2023-02-11T19:14:55.464Z,97761.16
2023-02-11T19:17:23.009Z,97735.88
2023-02-11T19:19:50.623Z,97751.09
2023-02-11T19:22:20.813Z,97758.22
2023-02-11T19:24:50.321Z,97713.00
2023-02-11T19:27:18.629Z,97716.22
2023-02-11T19:29:46.674Z,97711.19
2023-02-11T19:32:15.703Z,97738.63
2023-02-11T19:34:43.415Z,97733.78
2023-02-11T19:37:12.546Z,97745.50
2023-02-11T19:39:40.379Z,97765.34
2023-02-11T19:42:09.444Z,97736.97
2023-02-11T19:44:37.012Z,97760.63
2023-02-11T19:47:05.112Z,97769.81
2023-02-11T19:49:34.359Z,97727.56
2023-02-11T19:52:02.402Z,97745.97
2023-02-11T19:54:33.238Z,97763.38
2023-02-11T19:57:00.850Z,97768.84
2023-02-11T19:59:30.044Z,97760.84
2023-02-11T20:01:58.118Z,97767.88
2023-02-11T20:04:25.811Z,97773.34
2023-02-11T20:06:53.622Z,97753.34
2023-02-11T20:09:21.735Z,97760.06
2023-02-11T20:11:52.167Z,97753.34
2023-02-11T20:14:21.726Z,97734.81
2023-02-11T20:16:51.014Z,97697.66
2023-02-11T20:19:21.315Z,97763.69
2023-02-11T20:21:52.228Z,97742.41
2023-02-11T20:24:20.929Z,97754.03
2023-02-11T20:26:49.054Z,97768.19
2023-02-11T20:29:16.878Z,97773.34
2023-02-11T20:31:44.861Z,97747.91
2023-02-11T20:34:14.158Z,97783.72
2023-02-11T20:36:42.138Z,97777.09
2023-02-11T20:39:11.484Z,97788.25
2023-02-11T20:41:40.633Z,97787.94
2023-02-11T20:44:11.075Z,97767.47
2023-02-11T20:46:40.811Z,97789.69
2023-02-11T20:49:10.868Z,97782.16
2023-02-11T20:51:41.096Z,97792.28
2023-02-11T20:54:12.921Z,97732.72
2023-02-11T20:56:40.594Z,97760.09
2023-02-11T20:59:08.506Z,97778.00
2023-02-11T21:01:40.284Z,97801.97
2023-02-11T21:04:12.379Z,97737.44
2023-02-11T21:06:43.734Z,97803.81
2023-02-11T21:09:14.314Z,97800.56
2023-02-11T21:11:42.454Z,97803.94
2023-02-11T21:14:11.048Z,97782.34
2023-02-11T21:16:39.073Z,97788.97
2023-02-11T21:19:07.449Z,97791.00
2023-02-11T21:21:36.416Z,97808.94
2023-02-11T21:24:05.850Z,97800.25
2023-02-11T21:26:35.496Z,97803.00
2023-02-11T21:29:03.164Z,97790.94
2023-02-11T21:31:39.052Z,97756.31
2023-02-11T21:34:08.543Z,97802.69
2023-02-11T21:36:36.286Z,97804.81
2023-02-11T21:39:05.885Z,97805.94
2023-02-11T21:41:33.717Z,97810.00
2023-02-11T21:44:01.516Z,97812.59
2023-02-11T21:46:29.302Z,97789.06
2023-02-11T21:48:58.100Z,97792.47
2023-02-11T21:51:27.231Z,97800.38
2023-02-11T21:53:56.509Z,97781.81
2023-02-11T21:56:26.329Z,97780.19
2023-02-11T21:58:55.102Z,97811.34
2023-02-11T22:01:24.547Z,97769.44
2023-02-11T22:03:54.570Z,97815.34
2023-02-11T22:06:23.776Z,97798.78
2023-02-11T22:08:51.667Z,97811.47
2023-02-11T22:11:20.505Z,97818.56
2023-02-11T22:13:53.464Z,97819.53
2023-02-11T22:16:21.425Z,97816.97
2023-02-11T22:18:49.125Z,97792.44
2023-02-11T22:21:18.879Z,97803.72
2023-02-11T22:23:47.101Z,97818.09
2023-02-11T22:26:17.310Z,97817.13
2023-02-11T22:28:45.383Z,97820.84
2023-02-11T22:31:16.950Z,97807.94
2023-02-11T22:33:44.733Z,97813.28
2023-02-11T22:36:17.282Z,97807.78
2023-02-11T22:38:45.007Z,97802.81
2023-02-11T22:41:13.111Z,97810.75
2023-02-11T22:43:42.294Z,97788.34
2023-02-11T22:46:11.814Z,97809.63
2023-02-11T22:48:41.109Z,97801.59
2023-02-11T22:51:10.538Z,97802.38
2023-02-11T22:53:37.972Z,97783.56
2023-02-11T22:56:06.931Z,97805.00
2023-02-11T22:58:34.799Z,97824.03
2023-02-11T23:01:02.317Z,97801.97
2023-02-11T23:03:31.115Z,97753.94
2023-02-11T23:06:00.885Z,97817.13
2023-02-11T23:08:29.941Z,97822.44
2023-02-11T23:10:57.899Z,97787.63
2023-02-11T23:13:25.422Z,97816.50
2023-02-11T23:15:53.039Z,97842.28
2023-02-11T23:18:20.572Z,97832.44
2023-02-11T23:20:48.658Z,97835.00
2023-02-11T23:23:17.424Z,97846.63
2023-02-11T23:25:45.726Z,97829.88
2023-02-11T23:28:13.490Z,97849.22
2023-02-11T23:30:41.638Z,97849.56
2023-02-11T23:33:09.291Z,97828.59
2023-02-11T23:35:37.098Z,97820.19
2023-02-11T23:38:04.553Z,97831.97
2023-02-11T23:40:33.357Z,97854.56
2023-02-11T23:43:00.806Z,97860.69
2023-02-11T23:45:28.288Z,97865.66
2023-02-11T23:47:55.743Z,97865.50
2023-02-11T23:50:23.176Z,97841.63
2023-02-11T23:52:50.579Z,97865.69
2023-02-11T23:55:18.079Z,97858.91
2023-02-11T23:57:46.845Z,97858.75
